createdAt,value
2023-02-16T00:00:57.061Z,9.93
2023-02-16T00:01:59.062Z,10.55
2023-02-16T00:03:00.892Z,10.45
2023-02-16T00:04:09.902Z,9.48
2023-02-16T00:05:28.205Z,7.90
2023-02-16T00:06:30.109Z,10.25
2023-02-16T00:07:31.985Z,7.75
2023-02-16T00:08:33.981Z,8.50
2023-02-16T00:09:35.748Z,9.48
2023-02-16T00:10:39.043Z,10.55
2023-02-16T00:11:59.636Z,9.85
2023-02-16T00:13:20.981Z,9.63
2023-02-16T00:14:26.170Z,8.93
2023-02-16T00:15:27.995Z,11.45
2023-02-16T00:16:29.817Z,10.13
2023-02-16T00:17:31.698Z,9.20
2023-02-16T00:18:33.487Z,9.13
2023-02-16T00:19:38.402Z,9.48
2023-02-16T00:20:40.151Z,10.13
2023-02-16T00:21:41.909Z,9.82
2023-02-16T00:22:44.459Z,9.65
2023-02-16T00:23:46.776Z,10.02
2023-02-16T00:24:48.529Z,10.15
2023-02-16T00:25:50.495Z,10.73
2023-02-16T00:26:53.217Z,11.55
2023-02-16T00:27:55.225Z,10.95
2023-02-16T00:29:00.727Z,9.63
2023-02-16T00:30:03.298Z,8.73
2023-02-16T00:31:05.563Z,9.15
2023-02-16T00:32:11.001Z,9.93
2023-02-16T00:33:18.735Z,9.82
2023-02-16T00:34:45.511Z,10.30
2023-02-16T00:35:47.819Z,8.45
2023-02-16T00:36:51.168Z,10.07
2023-02-16T00:37:52.942Z,8.55
2023-02-16T00:38:54.677Z,9.98
2023-02-16T00:39:56.478Z,11.38
2023-02-16T00:40:58.838Z,9.60
2023-02-16T00:42:03.781Z,8.60
2023-02-16T00:43:06.315Z,9.27
2023-02-16T00:44:17.159Z,9.02
2023-02-16T00:45:21.825Z,9.40
2023-02-16T00:46:23.937Z,9.00
2023-02-16T00:47:37.401Z,10.02
2023-02-16T00:48:39.166Z,11.13
2023-02-16T00:49:41.040Z,8.85
2023-02-16T00:50:45.173Z,9.15
2023-02-16T00:51:47.520Z,10.50
2023-02-16T00:52:54.098Z,12.27
2023-02-16T00:53:57.346Z,10.32
2023-02-16T00:55:00.145Z,9.75
2023-02-16T00:56:02.024Z,9.93
2023-02-16T00:57:03.945Z,9.60
2023-02-16T00:58:14.517Z,8.80
2023-02-16T00:59:20.854Z,9.68
2023-02-16T01:00:25.700Z,9.05
2023-02-16T01:01:31.379Z,9.70
2023-02-16T01:02:34.480Z,9.77
2023-02-16T01:03:37.310Z,9.52
2023-02-16T01:04:39.911Z,9.30
2023-02-16T01:05:42.199Z,9.38
2023-02-16T01:07:02.401Z,10.52
2023-02-16T01:08:29.437Z,10.18
2023-02-16T01:09:50.675Z,9.63
2023-02-16T01:11:07.407Z,9.50
2023-02-16T01:12:14.773Z,11.45
2023-02-16T01:13:17.561Z,9.10
2023-02-16T01:14:19.446Z,10.90
2023-02-16T01:15:24.683Z,11.65
2023-02-16T01:16:35.466Z,9.07
2023-02-16T01:17:37.278Z,9.40
2023-02-16T01:18:39.009Z,9.77
2023-02-16T01:19:41.048Z,10.27
2023-02-16T01:20:43.746Z,8.50
2023-02-16T01:21:45.588Z,11.55
2023-02-16T01:22:47.748Z,9.23
2023-02-16T01:23:49.856Z,12.02
2023-02-16T01:24:51.631Z,9.60
2023-02-16T01:25:53.505Z,8.38
2023-02-16T01:26:56.023Z,10.90
2023-02-16T01:27:57.954Z,11.95
2023-02-16T01:29:02.378Z,12.48
2023-02-16T01:30:07.139Z,12.55
2023-02-16T01:31:11.613Z,9.23
2023-02-16T01:32:14.743Z,10.95
2023-02-16T01:33:17.455Z,12.88
2023-02-16T01:34:20.347Z,10.00
2023-02-16T01:35:28.387Z,9.50
2023-02-16T01:36:34.568Z,8.25
2023-02-16T01:37:36.349Z,9.43
2023-02-16T01:38:38.171Z,9.20
2023-02-16T01:39:41.697Z,10.25
2023-02-16T01:40:49.089Z,10.35
2023-02-16T01:42:18.560Z,9.77
2023-02-16T01:43:26.060Z,11.23
2023-02-16T01:44:40.226Z,11.35
2023-02-16T01:45:45.270Z,8.65
2023-02-16T01:46:59.608Z,10.35
2023-02-16T01:48:07.505Z,9.68
2023-02-16T01:49:16.835Z,10.73
2023-02-16T01:50:22.129Z,9.15
2023-02-16T01:51:41.245Z,9.68
2023-02-16T01:52:45.241Z,9.90
2023-02-16T01:53:52.986Z,11.25
2023-02-16T01:55:13.687Z,10.68
2023-02-16T01:56:25.423Z,9.15
2023-02-16T01:57:47.793Z,10.02
2023-02-16T01:58:55.783Z,7.95
2023-02-16T01:59:57.801Z,9.02
2023-02-16T02:00:59.542Z,10.75
2023-02-16T02:02:12.000Z,11.30
2023-02-16T02:04:04.376Z,9.32
2023-02-16T02:05:35.676Z,9.55
2023-02-16T02:06:38.045Z,9.27
2023-02-16T02:08:02.128Z,8.30
2023-02-16T02:09:39.605Z,8.88
2023-02-16T02:10:53.218Z,9.45
2023-02-16T02:12:05.791Z,9.93
2023-02-16T02:13:32.697Z,9.05
2023-02-16T02:14:38.606Z,9.52
2023-02-16T02:15:40.565Z,8.52
2023-02-16T02:16:53.652Z,8.85
2023-02-16T02:17:56.026Z,9.05
2023-02-16T02:18:58.333Z,11.05
2023-02-16T02:20:16.176Z,10.70
2023-02-16T02:21:39.620Z,9.60
2023-02-16T02:23:31.942Z,8.35
2023-02-16T02:24:37.872Z,7.70
2023-02-16T02:26:02.303Z,9.35
2023-02-16T02:27:30.076Z,9.05
2023-02-16T02:28:52.456Z,10.45
2023-02-16T02:30:33.072Z,10.27
2023-02-16T02:31:51.925Z,9.88
2023-02-16T02:33:00.616Z,8.88
2023-02-16T02:34:23.103Z,11.15
2023-02-16T02:35:54.930Z,9.73
2023-02-16T02:37:22.894Z,8.35
2023-02-16T02:38:30.537Z,8.90
2023-02-16T02:39:48.185Z,9.80
2023-02-16T02:41:49.123Z,9.13
2023-02-16T02:43:19.171Z,9.57
2023-02-16T02:44:24.205Z,9.15
2023-02-16T02:45:34.905Z,8.68
2023-02-16T02:46:38.453Z,9.95
2023-02-16T02:47:46.971Z,12.13
2023-02-16T02:48:49.672Z,10.82
2023-02-16T02:49:55.713Z,10.15
2023-02-16T02:51:28.279Z,8.95
2023-02-16T02:52:32.868Z,7.88
2023-02-16T02:53:42.499Z,9.38
2023-02-16T02:55:04.716Z,9.82
2023-02-16T02:56:28.124Z,8.93
2023-02-16T02:58:07.751Z,8.82
2023-02-16T02:59:29.613Z,8.45
2023-02-16T03:00:41.746Z,8.77
2023-02-16T03:01:53.020Z,9.38
2023-02-16T03:03:02.350Z,11.07
2023-02-16T03:04:06.282Z,10.77
2023-02-16T03:05:11.686Z,8.23
2023-02-16T03:06:34.114Z,10.68
2023-02-16T03:07:46.672Z,10.63
2023-02-16T03:08:54.564Z,10.68
2023-02-16T03:10:17.633Z,9.90
2023-02-16T03:11:41.313Z,9.20
2023-02-16T03:12:46.702Z,9.38
2023-02-16T03:13:55.886Z,11.05
2023-02-16T03:15:01.281Z,9.63
2023-02-16T03:16:09.843Z,9.38
2023-02-16T03:17:33.746Z,9.43
2023-02-16T03:18:56.268Z,8.32
2023-02-16T03:20:19.965Z,10.30
2023-02-16T03:21:41.097Z,9.30
2023-02-16T03:23:02.280Z,10.15
2023-02-16T03:24:26.124Z,11.25
2023-02-16T03:25:50.592Z,9.60
2023-02-16T03:27:12.676Z,9.98
2023-02-16T03:28:35.380Z,9.82
2023-02-16T03:29:38.432Z,8.77
2023-02-16T03:30:42.128Z,8.60
2023-02-16T03:31:46.405Z,9.63
2023-02-16T03:32:48.975Z,12.23
2023-02-16T03:33:55.190Z,9.13
2023-02-16T03:34:57.226Z,9.13
2023-02-16T03:35:59.786Z,7.80
2023-02-16T03:37:02.038Z,10.65
2023-02-16T03:38:04.992Z,10.65
2023-02-16T03:39:08.516Z,12.13
2023-02-16T03:40:29.335Z,8.75
2023-02-16T03:41:40.160Z,11.82
2023-02-16T03:42:51.642Z,10.10
2023-02-16T03:43:53.948Z,9.43
2023-02-16T03:44:55.876Z,11.38
2023-02-16T03:45:57.865Z,10.10
2023-02-16T03:47:02.490Z,11.05
2023-02-16T03:48:05.184Z,10.18
2023-02-16T03:49:07.059Z,8.85
2023-02-16T03:50:09.198Z,9.18
2023-02-16T03:51:11.143Z,11.77
2023-02-16T03:52:12.973Z,11.60
2023-02-16T03:53:17.068Z,11.40
2023-02-16T03:54:20.460Z,11.18
2023-02-16T03:55:22.202Z,10.30
2023-02-16T03:56:23.944Z,11.60
2023-02-16T03:57:25.909Z,9.43
2023-02-16T03:58:27.755Z,10.50
2023-02-16T03:59:29.660Z,12.93
2023-02-16T04:00:31.546Z,11.68
2023-02-16T04:01:33.420Z,9.65
2023-02-16T04:02:35.193Z,8.40
2023-02-16T04:03:37.057Z,11.90
2023-02-16T04:04:38.811Z,10.75
2023-02-16T04:05:41.124Z,9.30
2023-02-16T04:06:42.932Z,10.45
2023-02-16T04:07:44.740Z,9.45
2023-02-16T04:08:46.847Z,10.20
2023-02-16T04:09:49.030Z,11.90
2023-02-16T04:10:51.187Z,8.48
2023-02-16T04:12:11.344Z,12.02
2023-02-16T04:13:13.196Z,9.10
2023-02-16T04:14:15.106Z,9.95
2023-02-16T04:15:19.725Z,12.13
2023-02-16T04:16:21.551Z,10.38
2023-02-16T04:17:24.143Z,13.00
2023-02-16T04:18:26.141Z,9.57
2023-02-16T04:19:29.298Z,11.30
2023-02-16T04:20:32.893Z,10.32
2023-02-16T04:21:34.882Z,8.68
2023-02-16T04:22:36.728Z,9.68
2023-02-16T04:23:38.760Z,10.88
2023-02-16T04:24:40.770Z,9.70
2023-02-16T04:25:42.940Z,11.60
2023-02-16T04:26:46.097Z,9.30
2023-02-16T04:27:48.860Z,11.48
2023-02-16T04:28:50.947Z,11.48
2023-02-16T04:29:52.891Z,11.20
2023-02-16T04:30:54.777Z,11.05
2023-02-16T04:31:56.992Z,11.60
2023-02-16T04:33:01.769Z,10.43
2023-02-16T04:34:03.688Z,10.15
2023-02-16T04:35:06.691Z,10.82
2023-02-16T04:36:09.193Z,12.05
2023-02-16T04:37:11.031Z,9.75
2023-02-16T04:38:12.815Z,9.57
2023-02-16T04:39:14.641Z,12.63
2023-02-16T04:40:19.082Z,10.82
2023-02-16T04:41:20.821Z,10.23
2023-02-16T04:42:24.021Z,10.43
2023-02-16T04:43:26.022Z,12.38
2023-02-16T04:44:27.916Z,9.90
2023-02-16T04:45:29.890Z,10.63
2023-02-16T04:46:31.977Z,9.82
2023-02-16T04:47:34.290Z,9.50
2023-02-16T04:48:36.349Z,9.05
2023-02-16T04:49:38.577Z,9.85
2023-02-16T04:50:40.362Z,11.73
2023-02-16T04:51:42.203Z,11.07
2023-02-16T04:52:44.182Z,10.55
2023-02-16T04:53:46.030Z,10.35
2023-02-16T04:54:48.292Z,9.02
2023-02-16T04:55:51.231Z,9.93
2023-02-16T04:56:53.683Z,10.02
2023-02-16T04:57:55.607Z,11.57
2023-02-16T04:58:57.479Z,11.20
2023-02-16T04:59:59.264Z,10.23
2023-02-16T05:01:01.229Z,10.80
2023-02-16T05:02:03.173Z,10.55
2023-02-16T05:03:04.957Z,10.65
2023-02-16T05:04:06.985Z,10.40
2023-02-16T05:05:09.142Z,9.02
2023-02-16T05:06:10.989Z,11.82
2023-02-16T05:07:12.779Z,10.70
2023-02-16T05:08:14.702Z,10.93
2023-02-16T05:09:16.691Z,11.00
2023-02-16T05:10:18.575Z,9.05
2023-02-16T05:11:39.077Z,11.02
2023-02-16T05:12:59.359Z,9.93
2023-02-16T05:14:20.193Z,9.30
2023-02-16T05:15:22.160Z,10.25
2023-02-16T05:16:24.900Z,10.00
2023-02-16T05:17:27.778Z,11.25
2023-02-16T05:18:29.940Z,9.38
2023-02-16T05:19:31.983Z,10.20
2023-02-16T05:20:52.333Z,11.80
2023-02-16T05:21:54.251Z,10.85
2023-02-16T05:22:55.970Z,9.32
2023-02-16T05:24:02.913Z,11.27
2023-02-16T05:25:08.039Z,10.20
2023-02-16T05:26:09.791Z,10.98
2023-02-16T05:27:17.866Z,10.98
2023-02-16T05:28:19.761Z,10.80
2023-02-16T05:29:21.682Z,10.52
2023-02-16T05:30:23.626Z,11.70
2023-02-16T05:31:26.850Z,11.45
2023-02-16T05:32:28.863Z,10.18
2023-02-16T05:33:30.739Z,11.23
2023-02-16T05:34:32.827Z,8.70
2023-02-16T05:35:35.515Z,8.45
2023-02-16T05:36:37.548Z,9.63
2023-02-16T05:37:42.386Z,7.88
2023-02-16T05:38:45.349Z,10.48
2023-02-16T05:39:47.292Z,10.75
2023-02-16T05:40:49.106Z,11.13
2023-02-16T05:41:50.971Z,10.25
2023-02-16T05:42:54.783Z,10.05
2023-02-16T05:44:01.800Z,10.00
2023-02-16T05:45:03.692Z,10.30
2023-02-16T05:46:09.429Z,11.15
2023-02-16T05:47:11.394Z,11.57
2023-02-16T05:48:13.166Z,10.23
2023-02-16T05:49:15.949Z,10.65
2023-02-16T05:50:17.889Z,12.23
2023-02-16T05:51:22.755Z,10.38
2023-02-16T05:52:24.509Z,11.23
2023-02-16T05:53:26.323Z,10.95
2023-02-16T05:54:28.331Z,12.07
2023-02-16T05:55:30.085Z,13.20
2023-02-16T05:56:32.392Z,10.45
2023-02-16T05:57:36.082Z,10.45
2023-02-16T05:58:38.902Z,11.68
2023-02-16T05:59:40.969Z,11.88
2023-02-16T06:00:42.844Z,11.30
2023-02-16T06:01:47.936Z,11.18
2023-02-16T06:02:52.557Z,10.82
2023-02-16T06:03:54.561Z,11.60
2023-02-16T06:04:56.380Z,11.10
2023-02-16T06:06:01.646Z,10.73
2023-02-16T06:07:03.541Z,9.82
2023-02-16T06:08:05.385Z,9.45
2023-02-16T06:09:09.092Z,10.57
2023-02-16T06:10:11.426Z,11.57
2023-02-16T06:11:31.802Z,12.43
2023-02-16T06:12:34.824Z,11.05
2023-02-16T06:13:36.707Z,10.85
2023-02-16T06:14:38.824Z,12.38
2023-02-16T06:15:41.319Z,9.82
2023-02-16T06:16:45.453Z,10.65
2023-02-16T06:17:47.288Z,11.90
2023-02-16T06:18:49.133Z,14.43
2023-02-16T06:19:53.833Z,13.23
2023-02-16T06:20:57.296Z,12.95
2023-02-16T06:21:59.392Z,12.32
2023-02-16T06:23:01.229Z,12.70
2023-02-16T06:24:03.514Z,11.63
2023-02-16T06:25:05.553Z,10.15
2023-02-16T06:26:07.351Z,11.20
2023-02-16T06:27:09.168Z,10.23
2023-02-16T06:28:11.447Z,10.85
2023-02-16T06:29:13.185Z,11.52
2023-02-16T06:30:15.369Z,12.57
2023-02-16T06:31:18.151Z,11.13
2023-02-16T06:32:20.886Z,9.63
2023-02-16T06:33:23.130Z,11.05
2023-02-16T06:34:25.489Z,12.18
2023-02-16T06:35:27.440Z,10.40
2023-02-16T06:36:29.477Z,13.70
2023-02-16T06:37:31.357Z,12.60
2023-02-16T06:38:33.240Z,13.75
2023-02-16T06:39:34.991Z,11.65
2023-02-16T06:40:36.761Z,12.77
2023-02-16T06:41:40.466Z,13.13
2023-02-16T06:42:43.242Z,11.00
2023-02-16T06:43:45.371Z,11.00
2023-02-16T06:44:47.935Z,13.48
2023-02-16T06:45:49.871Z,11.45
2023-02-16T06:46:55.124Z,12.10
2023-02-16T06:47:57.001Z,10.68
2023-02-16T06:49:00.135Z,11.40
2023-02-16T06:50:02.477Z,12.35
2023-02-16T06:51:05.385Z,10.15
2023-02-16T06:52:07.470Z,12.57
2023-02-16T06:53:09.319Z,11.32
2023-02-16T06:54:11.546Z,13.93
2023-02-16T06:55:13.645Z,13.70
2023-02-16T06:56:16.672Z,12.60
2023-02-16T06:57:18.465Z,11.48
2023-02-16T06:58:20.346Z,12.20
2023-02-16T06:59:22.176Z,10.10
2023-02-16T07:00:23.990Z,10.50
2023-02-16T07:01:26.216Z,11.43
2023-02-16T07:02:28.061Z,11.23
2023-02-16T07:03:29.862Z,11.90
2023-02-16T07:04:31.789Z,12.23
2023-02-16T07:05:33.672Z,12.15
2023-02-16T07:06:35.377Z,13.80
2023-02-16T07:07:37.125Z,11.70
2023-02-16T07:08:38.963Z,12.93
2023-02-16T07:09:40.938Z,9.30
2023-02-16T07:10:50.254Z,11.77
2023-02-16T07:11:52.356Z,12.00
2023-02-16T07:12:54.154Z,12.85
2023-02-16T07:13:56.124Z,11.50
2023-02-16T07:14:58.032Z,12.48
2023-02-16T07:16:01.235Z,11.68
2023-02-16T07:17:04.487Z,12.18
2023-02-16T07:18:06.501Z,13.68
2023-02-16T07:19:08.518Z,12.20
2023-02-16T07:20:12.639Z,10.57
2023-02-16T07:21:15.434Z,10.73
2023-02-16T07:22:17.810Z,13.25
2023-02-16T07:23:19.632Z,13.00
2023-02-16T07:24:21.482Z,11.43
2023-02-16T07:25:25.648Z,13.75
2023-02-16T07:26:28.453Z,12.15
2023-02-16T07:27:30.335Z,11.98
2023-02-16T07:28:32.396Z,13.57
2023-02-16T07:29:34.324Z,12.85
2023-02-16T07:30:36.979Z,11.40
2023-02-16T07:31:40.220Z,12.13
2023-02-16T07:32:42.970Z,11.60
2023-02-16T07:33:45.304Z,12.55
2023-02-16T07:34:47.086Z,12.95
2023-02-16T07:35:50.278Z,11.07
2023-02-16T07:36:52.031Z,11.65
2023-02-16T07:37:54.041Z,13.40
2023-02-16T07:38:55.859Z,10.77
2023-02-16T07:39:57.607Z,11.50
2023-02-16T07:40:59.822Z,10.93
2023-02-16T07:42:01.821Z,12.23
2023-02-16T07:43:05.747Z,11.98
2023-02-16T07:44:07.688Z,12.70
2023-02-16T07:45:11.138Z,11.95
2023-02-16T07:46:12.994Z,13.05
2023-02-16T07:47:14.888Z,14.13
2023-02-16T07:48:16.863Z,12.38
2023-02-16T07:49:18.587Z,15.10
2023-02-16T07:50:20.529Z,12.68
2023-02-16T07:51:24.132Z,12.50
2023-02-16T07:52:30.964Z,11.55
2023-02-16T07:53:33.013Z,13.40
2023-02-16T07:54:35.957Z,13.32
2023-02-16T07:55:40.893Z,10.70
2023-02-16T07:56:42.675Z,14.02
2023-02-16T07:57:45.312Z,14.40
2023-02-16T07:58:50.862Z,11.95
2023-02-16T07:59:53.316Z,14.00
2023-02-16T08:01:08.054Z,13.77
2023-02-16T08:02:19.886Z,12.35
2023-02-16T08:03:21.914Z,12.50
2023-02-16T08:04:23.880Z,13.25
2023-02-16T08:05:25.652Z,13.07
2023-02-16T08:06:27.630Z,13.20
2023-02-16T08:07:29.441Z,11.20
2023-02-16T08:08:32.026Z,12.90
2023-02-16T08:09:34.239Z,13.70
2023-02-16T08:10:35.998Z,12.55
2023-02-16T08:11:37.817Z,11.75
2023-02-16T08:12:39.722Z,13.25
2023-02-16T08:13:41.799Z,12.30
2023-02-16T08:14:44.729Z,10.88
2023-02-16T08:15:46.857Z,12.23
2023-02-16T08:16:51.745Z,12.00
2023-02-16T08:17:55.512Z,12.95
2023-02-16T08:18:58.796Z,12.82
2023-02-16T08:20:00.892Z,11.75
2023-02-16T08:21:17.172Z,11.80
2023-02-16T08:22:19.262Z,14.40
2023-02-16T08:23:21.350Z,13.93
2023-02-16T08:24:25.011Z,13.40
2023-02-16T08:25:27.307Z,14.52
2023-02-16T08:26:34.551Z,11.68
2023-02-16T08:27:36.398Z,11.57
2023-02-16T08:28:38.745Z,13.07
2023-02-16T08:29:41.649Z,13.90
2023-02-16T08:30:43.422Z,13.27
2023-02-16T08:31:46.542Z,12.70
2023-02-16T08:32:50.891Z,13.00
2023-02-16T08:33:53.927Z,13.32
2023-02-16T08:34:57.650Z,13.10
2023-02-16T08:36:00.301Z,13.02
2023-02-16T08:37:02.277Z,11.95
2023-02-16T08:38:04.025Z,11.48
2023-02-16T08:39:08.786Z,11.93
2023-02-16T08:40:11.473Z,11.65
2023-02-16T08:41:13.216Z,13.80
2023-02-16T08:42:15.020Z,12.70
2023-02-16T08:43:16.856Z,13.43
2023-02-16T08:44:20.911Z,11.38
2023-02-16T08:45:22.864Z,13.13
2023-02-16T08:46:24.739Z,12.15
2023-02-16T08:47:26.548Z,11.45
2023-02-16T08:48:28.945Z,14.90
2023-02-16T08:49:30.871Z,12.23
2023-02-16T08:50:32.815Z,12.27
2023-02-16T08:51:40.308Z,12.95
2023-02-16T08:52:42.751Z,12.05
2023-02-16T08:53:46.691Z,13.13
2023-02-16T08:54:48.705Z,11.57
2023-02-16T08:56:00.646Z,12.93
2023-02-16T08:57:03.048Z,14.30
2023-02-16T08:58:05.684Z,13.13
2023-02-16T08:59:07.728Z,14.02
2023-02-16T09:00:28.522Z,12.57
2023-02-16T09:01:31.053Z,11.35
2023-02-16T09:02:33.920Z,13.10
2023-02-16T09:03:36.542Z,12.73
2023-02-16T09:04:38.388Z,12.10
2023-02-16T09:05:42.071Z,13.60
2023-02-16T09:06:45.328Z,11.47
2023-02-16T09:07:48.564Z,12.85
2023-02-16T09:08:53.031Z,12.27
2023-02-16T09:09:54.920Z,13.00
2023-02-16T09:11:04.993Z,11.13
2023-02-16T09:12:06.891Z,16.40
2023-02-16T09:13:15.114Z,14.60
2023-02-16T09:14:21.501Z,11.35
2023-02-16T09:15:23.841Z,13.07
2023-02-16T09:16:29.225Z,10.70
2023-02-16T09:17:31.292Z,14.02
2023-02-16T09:18:36.823Z,11.00
2023-02-16T09:19:38.707Z,13.02
2023-02-16T09:20:43.854Z,12.60
2023-02-16T09:21:48.680Z,13.93
2023-02-16T09:22:50.603Z,13.45
2023-02-16T09:23:55.717Z,15.15
2023-02-16T09:24:57.503Z,14.30
2023-02-16T09:26:02.691Z,12.18
2023-02-16T09:27:04.698Z,12.88
2023-02-16T09:28:09.773Z,13.35
2023-02-16T09:29:12.869Z,13.60
2023-02-16T09:30:16.196Z,12.27
2023-02-16T09:31:27.340Z,10.55
2023-02-16T09:32:30.327Z,13.10
2023-02-16T09:33:32.169Z,12.43
2023-02-16T09:34:34.362Z,14.95
2023-02-16T09:35:39.834Z,13.23
2023-02-16T09:36:42.354Z,14.23
2023-02-16T09:37:44.190Z,14.88
2023-02-16T09:38:48.996Z,13.85
2023-02-16T09:39:50.796Z,15.10
2023-02-16T09:40:53.274Z,13.73
2023-02-16T09:42:16.301Z,10.63
2023-02-16T09:43:54.442Z,11.27
2023-02-16T09:45:11.361Z,13.38
2023-02-16T09:46:21.222Z,11.70
2023-02-16T09:47:31.169Z,12.85
2023-02-16T09:48:38.796Z,13.40
2023-02-16T09:49:44.172Z,12.02
2023-02-16T09:50:54.348Z,14.45
2023-02-16T09:52:18.752Z,13.55
2023-02-16T09:53:28.908Z,12.27
2023-02-16T09:54:55.935Z,13.45
2023-02-16T09:56:19.090Z,12.35
2023-02-16T09:57:44.267Z,12.00
2023-02-16T09:58:51.858Z,14.65
2023-02-16T10:00:04.535Z,12.07
2023-02-16T10:01:43.600Z,12.73
2023-02-16T10:03:16.058Z,11.55
2023-02-16T10:04:32.856Z,12.43
2023-02-16T10:06:02.605Z,14.40
2023-02-16T10:07:23.350Z,13.23
2023-02-16T10:08:38.845Z,12.93
2023-02-16T10:09:45.233Z,13.52
2023-02-16T10:11:03.414Z,14.02
2023-02-16T10:12:14.263Z,13.63
2023-02-16T10:13:35.990Z,11.80
2023-02-16T10:14:41.421Z,12.85
2023-02-16T10:15:45.492Z,14.93
2023-02-16T10:17:12.634Z,14.57
2023-02-16T10:18:31.185Z,12.52
2023-02-16T10:19:59.332Z,13.32
2023-02-16T10:21:06.684Z,13.05
2023-02-16T10:22:17.991Z,13.63
2023-02-16T10:23:25.182Z,13.15
2023-02-16T10:24:31.249Z,15.82
2023-02-16T10:25:54.794Z,14.30
2023-02-16T10:27:07.528Z,13.18
2023-02-16T10:28:26.638Z,13.17
2023-02-16T10:29:28.377Z,11.77
2023-02-16T10:30:32.704Z,14.32
2023-02-16T10:31:48.446Z,11.52
2023-02-16T10:32:51.946Z,12.50
2023-02-16T10:34:28.674Z,16.47
2023-02-16T10:35:45.798Z,13.23
2023-02-16T10:36:59.486Z,12.20
2023-02-16T10:38:37.936Z,12.88
2023-02-16T10:39:48.025Z,12.90
2023-02-16T10:41:15.776Z,12.55
2023-02-16T10:42:36.997Z,12.37
2023-02-16T10:43:57.271Z,13.80
2023-02-16T10:45:22.512Z,12.05
2023-02-16T10:46:30.246Z,10.73
2023-02-16T10:47:38.871Z,12.48
2023-02-16T10:48:40.863Z,13.47
2023-02-16T10:49:43.060Z,12.43
2023-02-16T10:51:12.861Z,13.95
2023-02-16T10:52:14.836Z,12.35
2023-02-16T10:53:21.777Z,12.40
2023-02-16T10:54:29.320Z,13.07
2023-02-16T10:55:31.217Z,12.88
2023-02-16T10:56:32.970Z,14.57
2023-02-16T10:57:34.761Z,13.75
2023-02-16T10:58:42.104Z,12.45
2023-02-16T10:59:45.564Z,12.02
2023-02-16T11:01:15.555Z,14.37
2023-02-16T11:02:28.964Z,12.48
2023-02-16T11:03:33.507Z,12.68
2023-02-16T11:04:41.500Z,12.27
2023-02-16T11:05:44.165Z,12.93
2023-02-16T11:07:03.390Z,12.50
2023-02-16T11:08:08.294Z,12.20
2023-02-16T11:09:15.545Z,11.60
2023-02-16T11:10:38.983Z,14.75
2023-02-16T11:11:42.585Z,13.63
2023-02-16T11:12:44.466Z,12.43
2023-02-16T11:13:58.102Z,13.30
2023-02-16T11:15:06.072Z,12.20
2023-02-16T11:16:17.949Z,13.20
2023-02-16T11:17:22.597Z,13.85
2023-02-16T11:18:37.953Z,11.80
2023-02-16T11:19:48.692Z,11.80
2023-02-16T11:20:54.684Z,11.55
2023-02-16T11:21:57.198Z,12.70
2023-02-16T11:23:17.680Z,13.98
2023-02-16T11:24:27.887Z,11.23
2023-02-16T11:25:29.834Z,13.20
2023-02-16T11:26:32.141Z,12.07
2023-02-16T11:27:34.221Z,13.25
2023-02-16T11:28:43.315Z,13.73
2023-02-16T11:29:45.451Z,11.85
2023-02-16T11:30:47.407Z,13.88
2023-02-16T11:31:49.585Z,13.88
2023-02-16T11:32:51.954Z,12.45
2023-02-16T11:34:06.126Z,12.98
2023-02-16T11:35:10.138Z,13.33
2023-02-16T11:36:29.359Z,11.70
2023-02-16T11:37:34.794Z,13.77
2023-02-16T11:38:37.725Z,11.43
2023-02-16T11:39:47.027Z,10.90
2023-02-16T11:40:53.080Z,12.88
2023-02-16T11:41:57.665Z,12.63
2023-02-16T11:43:02.144Z,13.70
2023-02-16T11:44:04.304Z,14.07
2023-02-16T11:45:08.535Z,13.15
2023-02-16T11:46:16.613Z,13.93
2023-02-16T11:47:31.918Z,14.35
2023-02-16T11:48:34.400Z,12.27
2023-02-16T11:49:39.556Z,11.00
2023-02-16T11:50:57.538Z,12.80
2023-02-16T11:52:00.548Z,13.93
2023-02-16T11:53:11.749Z,12.82
2023-02-16T11:54:18.009Z,11.73
2023-02-16T11:55:33.034Z,13.43
2023-02-16T11:56:36.205Z,13.57
2023-02-16T11:57:39.133Z,13.15
2023-02-16T11:58:41.167Z,11.98
2023-02-16T11:59:42.897Z,11.80
2023-02-16T12:00:53.619Z,13.25
2023-02-16T12:02:17.086Z,11.95
2023-02-16T12:04:03.369Z,13.10
2023-02-16T12:05:19.832Z,10.47
2023-02-16T12:06:34.872Z,11.15
2023-02-16T12:08:12.073Z,12.35
2023-02-16T12:09:23.749Z,11.55
2023-02-16T12:10:31.037Z,11.27
2023-02-16T12:11:53.568Z,11.93
2023-02-16T12:13:16.803Z,11.23
2023-02-16T12:14:36.526Z,12.50
2023-02-16T12:15:54.915Z,10.57
2023-02-16T12:17:08.661Z,12.25
2023-02-16T12:18:32.736Z,10.30
2023-02-16T12:19:44.794Z,11.32
2023-02-16T12:21:02.163Z,13.10
2023-02-16T12:22:39.104Z,11.80
2023-02-16T12:24:05.035Z,12.18
2023-02-16T12:25:26.289Z,12.65
2023-02-16T12:26:49.058Z,12.38
2023-02-16T12:27:59.851Z,11.38
2023-02-16T12:29:20.802Z,11.23
2023-02-16T12:30:37.049Z,13.68
2023-02-16T12:31:53.323Z,12.70
2023-02-16T12:33:06.050Z,13.40
2023-02-16T12:34:29.724Z,12.80
2023-02-16T12:35:42.970Z,11.48
2023-02-16T12:37:03.571Z,12.45
2023-02-16T12:38:11.335Z,12.07
2023-02-16T12:39:29.704Z,12.45
2023-02-16T12:40:34.717Z,11.95
2023-02-16T12:41:40.130Z,12.35
2023-02-16T12:42:58.905Z,11.43
2023-02-16T12:44:06.199Z,10.23
2023-02-16T12:45:18.964Z,11.47
2023-02-16T12:46:34.768Z,12.07
2023-02-16T12:47:45.063Z,12.02
2023-02-16T12:48:49.967Z,10.75
2023-02-16T12:50:05.316Z,11.77
2023-02-16T12:51:12.167Z,12.27
2023-02-16T12:52:40.284Z,11.00
2023-02-16T12:54:07.864Z,12.18
2023-02-16T12:55:29.506Z,9.82
2023-02-16T12:56:46.115Z,11.73
2023-02-16T12:57:59.826Z,11.63
2023-02-16T12:59:23.453Z,11.45
2023-02-16T13:00:52.621Z,9.68
2023-02-16T13:01:58.347Z,11.40
2023-02-16T13:03:21.057Z,11.20
2023-02-16T13:04:31.240Z,12.52
2023-02-16T13:05:38.042Z,12.25
2023-02-16T13:06:49.381Z,11.73
2023-02-16T13:08:06.298Z,11.02
2023-02-16T13:09:38.011Z,12.20
2023-02-16T13:10:57.514Z,11.05
2023-02-16T13:12:07.672Z,10.07
2023-02-16T13:13:16.275Z,10.90
2023-02-16T13:14:22.438Z,10.10
2023-02-16T13:15:32.842Z,9.98
2023-02-16T13:16:50.775Z,11.07
2023-02-16T13:18:03.116Z,9.45
2023-02-16T13:19:05.672Z,10.68
2023-02-16T13:20:17.177Z,11.00
2023-02-16T13:21:59.798Z,10.30
2023-02-16T13:23:25.494Z,10.90
2023-02-16T13:24:45.828Z,10.05
2023-02-16T13:26:18.148Z,9.70
2023-02-16T13:28:01.748Z,9.55
2023-02-16T13:29:31.326Z,10.23
2023-02-16T13:30:51.442Z,8.90
2023-02-16T13:32:06.766Z,9.43
2023-02-16T13:33:14.629Z,10.10
2023-02-16T13:34:36.658Z,9.90
2023-02-16T13:36:10.647Z,8.50
2023-02-16T13:37:55.658Z,11.07
2023-02-16T13:39:13.178Z,8.95
2023-02-16T13:40:39.753Z,7.93
2023-02-16T13:42:02.724Z,7.38
2023-02-16T13:43:32.720Z,9.57
2023-02-16T13:44:50.841Z,7.97
2023-02-16T13:45:54.614Z,9.98
2023-02-16T13:46:57.022Z,9.35
2023-02-16T13:47:59.574Z,9.43
2023-02-16T13:49:02.273Z,8.17
2023-02-16T13:50:07.764Z,12.65
2023-02-16T13:51:15.068Z,8.57
2023-02-16T13:52:57.445Z,10.23
2023-02-16T13:54:02.554Z,9.07
2023-02-16T13:55:08.458Z,9.30
2023-02-16T13:56:22.450Z,9.25
2023-02-16T13:57:54.050Z,9.10
2023-02-16T13:58:59.626Z,7.65
2023-02-16T14:00:05.519Z,7.68
2023-02-16T14:01:39.249Z,8.73
2023-02-16T14:02:56.745Z,9.55
2023-02-16T14:03:59.560Z,8.18
2023-02-16T14:05:09.954Z,7.57
2023-02-16T14:06:29.478Z,9.18
2023-02-16T14:07:33.638Z,7.50
2023-02-16T14:08:35.575Z,8.77
2023-02-16T14:09:37.469Z,8.73
2023-02-16T14:11:08.381Z,8.45
2023-02-16T14:12:14.321Z,8.35
2023-02-16T14:13:16.644Z,9.07
2023-02-16T14:14:31.433Z,8.93
2023-02-16T14:15:33.804Z,8.02
2023-02-16T14:16:35.640Z,11.60
2023-02-16T14:17:37.570Z,10.43
2023-02-16T14:18:44.882Z,12.07
2023-02-16T14:20:25.012Z,7.90
2023-02-16T14:21:35.769Z,6.57
2023-02-16T14:22:50.690Z,8.00
2023-02-16T14:23:57.457Z,7.97
2023-02-16T14:25:02.061Z,9.60
2023-02-16T14:26:06.970Z,8.27
2023-02-16T14:27:13.023Z,8.45
2023-02-16T14:28:29.725Z,8.98
2023-02-16T14:29:34.179Z,7.18
2023-02-16T14:30:53.303Z,10.48
2023-02-16T14:32:18.352Z,8.65
2023-02-16T14:33:44.132Z,7.07
2023-02-16T14:34:56.117Z,8.35
2023-02-16T14:36:00.736Z,7.60
2023-02-16T14:37:10.401Z,7.00
2023-02-16T14:38:44.645Z,7.72
2023-02-16T14:40:06.910Z,6.28
2023-02-16T14:41:24.313Z,7.25
2023-02-16T14:42:33.343Z,7.38
2023-02-16T14:43:45.367Z,6.55
2023-02-16T14:45:25.189Z,5.28
2023-02-16T14:46:48.045Z,7.63
2023-02-16T14:48:13.107Z,6.70
2023-02-16T14:49:34.022Z,5.88
2023-02-16T14:51:28.284Z,6.87